sensor_id;sensor_type;location;lat;lon;timestamp;P1;durP1;ratioP1;P2;durP2;ratioP2
46447;SDS011;32145;50.390;30.778;2023-03-23T00:02:50;55.28;;;26.88;;
46447;SDS011;32145;50.390;30.778;2023-03-23T00:05:47;56.25;;;28.27;;
46447;SDS011;32145;50.390;30.778;2023-03-23T00:08:44;56.05;;;27.77;;
46447;SDS011;32145;50.390;30.778;2023-03-23T00:11:43;55.90;;;27.30;;
46447;SDS011;32145;50.390;30.778;2023-03-23T00:14:39;51.47;;;27.05;;
46447;SDS011;32145;50.390;30.778;2023-03-23T00:17:33;47.80;;;25.52;;
46447;SDS011;32145;50.390;30.778;2023-03-23T00:20:28;50.38;;;26.27;;
46447;SDS011;32145;50.390;30.778;2023-03-23T00:23:23;49.83;;;26.65;;
46447;SDS011;32145;50.390;30.778;2023-03-23T00:26:19;48.25;;;26.20;;
46447;SDS011;32145;50.390;30.778;2023-03-23T00:29:16;49.25;;;26.27;;
46447;SDS011;32145;50.390;30.778;2023-03-23T00:32:12;50.78;;;25.75;;
46447;SDS011;32145;50.390;30.778;2023-03-23T00:35:07;52.17;;;26.15;;
46447;SDS011;32145;50.390;30.778;2023-03-23T00:38:04;53.80;;;25.73;;
46447;SDS011;32145;50.390;30.778;2023-03-23T00:41:00;46.28;;;24.52;;
46447;SDS011;32145;50.390;30.778;2023-03-23T00:43:57;50.03;;;25.02;;
46447;SDS011;32145;50.390;30.778;2023-03-23T00:46:55;47.92;;;25.00;;
46447;SDS011;32145;50.390;30.778;2023-03-23T00:49:52;49.45;;;26.27;;
46447;SDS011;32145;50.390;30.778;2023-03-23T00:52:48;50.83;;;25.27;;
46447;SDS011;32145;50.390;30.778;2023-03-23T00:55:45;46.55;;;25.52;;
46447;SDS011;32145;50.390;30.778;2023-03-23T00:58:43;44.05;;;24.38;;
46447;SDS011;32145;50.390;30.778;2023-03-23T01:01:39;45.55;;;25.67;;
46447;SDS011;32145;50.390;30.778;2023-03-23T01:04:38;46.97;;;25.75;;
46447;SDS011;32145;50.390;30.778;2023-03-23T01:07:33;45.55;;;24.58;;
46447;SDS011;32145;50.390;30.778;2023-03-23T01:10:27;49.80;;;27.13;;
46447;SDS011;32145;50.390;30.778;2023-03-23T01:13:24;53.88;;;25.90;;
46447;SDS011;32145;50.390;30.778;2023-03-23T01:16:20;45.63;;;24.20;;
46447;SDS011;32145;50.390;30.778;2023-03-23T01:19:15;47.15;;;24.75;;
46447;SDS011;32145;50.390;30.778;2023-03-23T01:22:11;47.05;;;25.80;;
46447;SDS011;32145;50.390;30.778;2023-03-23T01:25:06;49.50;;;25.42;;
46447;SDS011;32145;50.390;30.778;2023-03-23T01:28:01;49.13;;;25.25;;
46447;SDS011;32145;50.390;30.778;2023-03-23T01:30:58;49.58;;;26.05;;
46447;SDS011;32145;50.390;30.778;2023-03-23T01:33:53;50.75;;;25.80;;
46447;SDS011;32145;50.390;30.778;2023-03-23T01:36:48;55.78;;;28.05;;
46447;SDS011;32145;50.390;30.778;2023-03-23T01:39:44;46.13;;;25.02;;
46447;SDS011;32145;50.390;30.778;2023-03-23T01:42:38;50.90;;;26.02;;
46447;SDS011;32145;50.390;30.778;2023-03-23T01:45:36;49.05;;;26.48;;
46447;SDS011;32145;50.390;30.778;2023-03-23T01:48:33;51.60;;;26.17;;
46447;SDS011;32145;50.390;30.778;2023-03-23T01:51:32;47.50;;;27.20;;
46447;SDS011;32145;50.390;30.778;2023-03-23T01:54:31;49.10;;;27.33;;
46447;SDS011;32145;50.390;30.778;2023-03-23T01:57:30;51.60;;;27.65;;
46447;SDS011;32145;50.390;30.778;2023-03-23T02:00:27;53.88;;;29.38;;
46447;SDS011;32145;50.390;30.778;2023-03-23T02:03:23;47.75;;;26.80;;
46447;SDS011;32145;50.390;30.778;2023-03-23T02:06:20;54.17;;;27.90;;
46447;SDS011;32145;50.390;30.778;2023-03-23T02:09:15;51.42;;;28.70;;
46447;SDS011;32145;50.390;30.778;2023-03-23T02:12:10;50.15;;;27.23;;
46447;SDS011;32145;50.390;30.778;2023-03-23T02:15:06;47.90;;;27.02;;
46447;SDS011;32145;50.390;30.778;2023-03-23T02:18:02;53.28;;;28.65;;
46447;SDS011;32145;50.390;30.778;2023-03-23T02:21:15;50.75;;;27.38;;
46447;SDS011;32145;50.390;30.778;2023-03-23T02:28:12;52.90;;;28.17;;
46447;SDS011;32145;50.390;30.778;2023-03-23T02:34:42;54.00;;;28.17;;
46447;SDS011;32145;50.390;30.778;2023-03-23T02:37:39;54.50;;;28.45;;
46447;SDS011;32145;50.390;30.778;2023-03-23T02:40:43;50.95;;;27.63;;
46447;SDS011;32145;50.390;30.778;2023-03-23T02:43:42;52.25;;;27.65;;
46447;SDS011;32145;50.390;30.778;2023-03-23T02:46:41;49.50;;;28.33;;
46447;SDS011;32145;50.390;30.778;2023-03-23T02:49:39;56.85;;;29.73;;
46447;SDS011;32145;50.390;30.778;2023-03-23T02:52:41;58.38;;;28.75;;
46447;SDS011;32145;50.390;30.778;2023-03-23T02:55:39;55.25;;;28.83;;
46447;SDS011;32145;50.390;30.778;2023-03-23T02:58:38;54.05;;;28.75;;
46447;SDS011;32145;50.390;30.778;2023-03-23T03:01:52;53.72;;;29.08;;
46447;SDS011;32145;50.390;30.778;2023-03-23T03:04:59;58.25;;;29.15;;
46447;SDS011;32145;50.390;30.778;2023-03-23T03:08:02;54.78;;;28.90;;
46447;SDS011;32145;50.390;30.778;2023-03-23T03:11:08;50.15;;;28.35;;
46447;SDS011;32145;50.390;30.778;2023-03-23T03:14:07;51.83;;;29.52;;
46447;SDS011;32145;50.390;30.778;2023-03-23T03:17:07;54.15;;;29.08;;
46447;SDS011;32145;50.390;30.778;2023-03-23T03:20:09;53.03;;;28.10;;
46447;SDS011;32145;50.390;30.778;2023-03-23T03:23:09;56.00;;;30.13;;
46447;SDS011;32145;50.390;30.778;2023-03-23T03:26:07;57.28;;;31.33;;
46447;SDS011;32145;50.390;30.778;2023-03-23T03:29:07;54.13;;;30.83;;
46447;SDS011;32145;50.390;30.778;2023-03-23T03:32:04;55.65;;;30.20;;
46447;SDS011;32145;50.390;30.778;2023-03-23T03:35:04;54.08;;;29.50;;
46447;SDS011;32145;50.390;30.778;2023-03-23T03:38:04;56.83;;;30.48;;
46447;SDS011;32145;50.390;30.778;2023-03-23T03:41:03;55.17;;;30.63;;
46447;SDS011;32145;50.390;30.778;2023-03-23T03:43:57;54.35;;;30.23;;
46447;SDS011;32145;50.390;30.778;2023-03-23T03:46:52;56.97;;;31.65;;
46447;SDS011;32145;50.390;30.778;2023-03-23T03:49:46;56.03;;;31.58;;
46447;SDS011;32145;50.390;30.778;2023-03-23T03:52:40;52.20;;;30.13;;
46447;SDS011;32145;50.390;30.778;2023-03-23T03:55:35;53.70;;;30.85;;
46447;SDS011;32145;50.390;30.778;2023-03-23T03:58:30;57.63;;;32.50;;
46447;SDS011;32145;50.390;30.778;2023-03-23T04:01:27;57.95;;;32.03;;
46447;SDS011;32145;50.390;30.778;2023-03-23T04:04:23;54.90;;;32.08;;
46447;SDS011;32145;50.390;30.778;2023-03-23T04:07:19;56.00;;;32.72;;
46447;SDS011;32145;50.390;30.778;2023-03-23T04:10:15;56.10;;;33.67;;
46447;SDS011;32145;50.390;30.778;2023-03-23T04:13:11;56.42;;;32.50;;
46447;SDS011;32145;50.390;30.778;2023-03-23T04:16:07;56.83;;;33.30;;
46447;SDS011;32145;50.390;30.778;2023-03-23T04:19:02;56.13;;;32.08;;
46447;SDS011;32145;50.390;30.778;2023-03-23T04:21:58;56.03;;;32.03;;
46447;SDS011;32145;50.390;30.778;2023-03-23T04:24:56;56.40;;;32.15;;
46447;SDS011;32145;50.390;30.778;2023-03-23T04:27:53;56.05;;;31.10;;
46447;SDS011;32145;50.390;30.778;2023-03-23T04:30:50;54.70;;;32.10;;
46447;SDS011;32145;50.390;30.778;2023-03-23T04:33:48;53.08;;;31.48;;
46447;SDS011;32145;50.390;30.778;2023-03-23T04:36:44;50.85;;;31.30;;
46447;SDS011;32145;50.390;30.778;2023-03-23T04:39:41;52.17;;;30.85;;
46447;SDS011;32145;50.390;30.778;2023-03-23T04:42:37;55.35;;;32.08;;
46447;SDS011;32145;50.390;30.778;2023-03-23T04:45:34;53.95;;;32.67;;
46447;SDS011;32145;50.390;30.778;2023-03-23T04:48:31;51.05;;;30.17;;
46447;SDS011;32145;50.390;30.778;2023-03-23T04:51:29;52.35;;;30.77;;
46447;SDS011;32145;50.390;30.778;2023-03-23T04:54:25;48.72;;;30.73;;
46447;SDS011;32145;50.390;30.778;2023-03-23T04:57:22;52.50;;;31.50;;
46447;SDS011;32145;50.390;30.778;2023-03-23T05:00:18;54.90;;;31.77;;
46447;SDS011;32145;50.390;30.778;2023-03-23T05:03:15;49.80;;;30.75;;
46447;SDS011;32145;50.390;30.778;2023-03-23T05:06:12;53.78;;;31.77;;
46447;SDS011;32145;50.390;30.778;2023-03-23T05:09:09;49.38;;;30.73;;
46447;SDS011;32145;50.390;30.778;2023-03-23T05:12:06;48.60;;;29.48;;
46447;SDS011;32145;50.390;30.778;2023-03-23T05:15:04;48.72;;;30.15;;
46447;SDS011;32145;50.390;30.778;2023-03-23T05:18:00;49.40;;;30.63;;
46447;SDS011;32145;50.390;30.778;2023-03-23T05:20:59;48.88;;;30.33;;
46447;SDS011;32145;50.390;30.778;2023-03-23T05:23:54;50.10;;;31.10;;
46447;SDS011;32145;50.390;30.778;2023-03-23T05:26:49;51.38;;;30.52;;
46447;SDS011;32145;50.390;30.778;2023-03-23T05:29:44;49.58;;;30.60;;
46447;SDS011;32145;50.390;30.778;2023-03-23T05:32:38;47.75;;;30.80;;
46447;SDS011;32145;50.390;30.778;2023-03-23T05:35:33;51.17;;;31.45;;
46447;SDS011;32145;50.390;30.778;2023-03-23T05:38:27;54.00;;;32.58;;
46447;SDS011;32145;50.390;30.778;2023-03-23T05:41:22;53.25;;;33.10;;
46447;SDS011;32145;50.390;30.778;2023-03-23T05:44:19;51.38;;;31.65;;
46447;SDS011;32145;50.390;30.778;2023-03-23T05:47:16;51.92;;;32.63;;
46447;SDS011;32145;50.390;30.778;2023-03-23T05:50:13;52.38;;;32.45;;
46447;SDS011;32145;50.390;30.778;2023-03-23T05:53:09;50.88;;;31.30;;
46447;SDS011;32145;50.390;30.778;2023-03-23T05:56:06;55.47;;;32.72;;
46447;SDS011;32145;50.390;30.778;2023-03-23T05:59:02;50.28;;;32.53;;
46447;SDS011;32145;50.390;30.778;2023-03-23T06:01:59;52.33;;;32.00;;
46447;SDS011;32145;50.390;30.778;2023-03-23T06:04:56;51.65;;;31.45;;
46447;SDS011;32145;50.390;30.778;2023-03-23T06:07:50;51.55;;;32.90;;
46447;SDS011;32145;50.390;30.778;2023-03-23T06:10:44;49.45;;;31.00;;
46447;SDS011;32145;50.390;30.778;2023-03-23T06:13:39;49.95;;;32.72;;
46447;SDS011;32145;50.390;30.778;2023-03-23T06:16:33;51.45;;;32.40;;
46447;SDS011;32145;50.390;30.778;2023-03-23T06:19:29;54.72;;;32.72;;
46447;SDS011;32145;50.390;30.778;2023-03-23T06:22:23;56.33;;;32.50;;
46447;SDS011;32145;50.390;30.778;2023-03-23T06:25:17;56.83;;;34.13;;
46447;SDS011;32145;50.390;30.778;2023-03-23T06:28:12;51.75;;;33.35;;
46447;SDS011;32145;50.390;30.778;2023-03-23T06:31:06;51.50;;;32.17;;
46447;SDS011;32145;50.390;30.778;2023-03-23T06:34:00;54.67;;;34.22;;
46447;SDS011;32145;50.390;30.778;2023-03-23T06:36:56;53.72;;;34.17;;
46447;SDS011;32145;50.390;30.778;2023-03-23T06:39:53;53.58;;;32.42;;
46447;SDS011;32145;50.390;30.778;2023-03-23T06:42:49;50.92;;;31.45;;
46447;SDS011;32145;50.390;30.778;2023-03-23T06:45:46;49.88;;;32.00;;
46447;SDS011;32145;50.390;30.778;2023-03-23T06:48:42;53.17;;;32.53;;
46447;SDS011;32145;50.390;30.778;2023-03-23T06:51:38;49.38;;;31.20;;
46447;SDS011;32145;50.390;30.778;2023-03-23T06:54:36;46.47;;;31.45;;
46447;SDS011;32145;50.390;30.778;2023-03-23T06:57:32;53.20;;;33.35;;
46447;SDS011;32145;50.390;30.778;2023-03-23T07:00:29;52.03;;;32.88;;
46447;SDS011;32145;50.390;30.778;2023-03-23T07:03:25;50.42;;;32.58;;
46447;SDS011;32145;50.390;30.778;2023-03-23T07:06:21;52.03;;;32.25;;
46447;SDS011;32145;50.390;30.778;2023-03-23T07:09:17;49.85;;;32.30;;
46447;SDS011;32145;50.390;30.778;2023-03-23T07:12:15;53.85;;;32.35;;
46447;SDS011;32145;50.390;30.778;2023-03-23T07:15:11;46.53;;;31.50;;
46447;SDS011;32145;50.390;30.778;2023-03-23T07:18:08;45.30;;;30.80;;
46447;SDS011;32145;50.390;30.778;2023-03-23T07:21:04;50.92;;;31.42;;
46447;SDS011;32145;50.390;30.778;2023-03-23T07:23:59;49.55;;;31.17;;
46447;SDS011;32145;50.390;30.778;2023-03-23T07:26:53;44.97;;;30.50;;
46447;SDS011;32145;50.390;30.778;2023-03-23T07:29:49;43.63;;;28.58;;
46447;SDS011;32145;50.390;30.778;2023-03-23T07:32:43;37.47;;;27.45;;
46447;SDS011;32145;50.390;30.778;2023-03-23T07:35:38;43.70;;;31.02;;
46447;SDS011;32145;50.390;30.778;2023-03-23T07:38:32;34.28;;;23.20;;
46447;SDS011;32145;50.390;30.778;2023-03-23T07:41:29;33.47;;;24.20;;
46447;SDS011;32145;50.390;30.778;2023-03-23T07:44:26;27.95;;;20.05;;
46447;SDS011;32145;50.390;30.778;2023-03-23T07:47:23;27.08;;;18.90;;
46447;SDS011;32145;50.390;30.778;2023-03-23T07:50:19;26.50;;;17.42;;
46447;SDS011;32145;50.390;30.778;2023-03-23T07:53:16;27.85;;;18.55;;
46447;SDS011;32145;50.390;30.778;2023-03-23T07:56:13;28.58;;;18.60;;
46447;SDS011;32145;50.390;30.778;2023-03-23T07:59:10;29.70;;;20.02;;
46447;SDS011;32145;50.390;30.778;2023-03-23T08:02:07;28.90;;;19.92;;
46447;SDS011;32145;50.390;30.778;2023-03-23T08:05:06;26.95;;;18.52;;
46447;SDS011;32145;50.390;30.778;2023-03-23T08:08:00;30.92;;;21.83;;
46447;SDS011;32145;50.390;30.778;2023-03-23T08:10:55;27.98;;;19.95;;
46447;SDS011;32145;50.390;30.778;2023-03-23T08:13:51;30.25;;;20.17;;
46447;SDS011;32145;50.390;30.778;2023-03-23T08:16:48;29.15;;;19.95;;
46447;SDS011;32145;50.390;30.778;2023-03-23T08:19:44;28.90;;;19.77;;
46447;SDS011;32145;50.390;30.778;2023-03-23T08:22:42;27.15;;;18.50;;
46447;SDS011;32145;50.390;30.778;2023-03-23T08:25:39;27.10;;;19.38;;
46447;SDS011;32145;50.390;30.778;2023-03-23T08:28:37;27.75;;;18.75;;
46447;SDS011;32145;50.390;30.778;2023-03-23T08:31:34;27.30;;;19.20;;
46447;SDS011;32145;50.390;30.778;2023-03-23T08:34:30;28.60;;;19.48;;
46447;SDS011;32145;50.390;30.778;2023-03-23T08:37:27;29.80;;;19.58;;
46447;SDS011;32145;50.390;30.778;2023-03-23T08:40:24;28.55;;;19.63;;
46447;SDS011;32145;50.390;30.778;2023-03-23T08:43:21;30.33;;;18.60;;
46447;SDS011;32145;50.390;30.778;2023-03-23T08:46:17;28.00;;;18.20;;
46447;SDS011;32145;50.390;30.778;2023-03-23T08:49:14;30.52;;;19.70;;
46447;SDS011;32145;50.390;30.778;2023-03-23T08:52:11;29.58;;;19.58;;
46447;SDS011;32145;50.390;30.778;2023-03-23T08:55:07;28.10;;;18.95;;
46447;SDS011;32145;50.390;30.778;2023-03-23T08:58:06;26.67;;;18.63;;
46447;SDS011;32145;50.390;30.778;2023-03-23T09:01:02;28.90;;;20.48;;
46447;SDS011;32145;50.390;30.778;2023-03-23T09:03:59;34.25;;;21.52;;
46447;SDS011;32145;50.390;30.778;2023-03-23T09:06:56;30.65;;;21.10;;
46447;SDS011;32145;50.390;30.778;2023-03-23T09:09:52;30.33;;;20.67;;
46447;SDS011;32145;50.390;30.778;2023-03-23T09:12:49;31.27;;;21.90;;
46447;SDS011;32145;50.390;30.778;2023-03-23T09:15:46;29.00;;;19.73;;
46447;SDS011;32145;50.390;30.778;2023-03-23T09:18:42;31.05;;;20.42;;
46447;SDS011;32145;50.390;30.778;2023-03-23T09:21:37;28.50;;;19.33;;
46447;SDS011;32145;50.390;30.778;2023-03-23T09:24:31;25.88;;;19.23;;
46447;SDS011;32145;50.390;30.778;2023-03-23T09:27:27;29.25;;;19.10;;
46447;SDS011;32145;50.390;30.778;2023-03-23T09:30:22;26.67;;;18.77;;
46447;SDS011;32145;50.390;30.778;2023-03-23T09:33:19;29.40;;;18.70;;
46447;SDS011;32145;50.390;30.778;2023-03-23T09:36:13;28.50;;;18.83;;
46447;SDS011;32145;50.390;30.778;2023-03-23T09:39:10;26.08;;;19.08;;
46447;SDS011;32145;50.390;30.778;2023-03-23T09:42:11;27.80;;;19.73;;
46447;SDS011;32145;50.390;30.778;2023-03-23T09:45:16;30.98;;;19.40;;
46447;SDS011;32145;50.390;30.778;2023-03-23T09:48:26;27.90;;;18.63;;
46447;SDS011;32145;50.390;30.778;2023-03-23T09:51:32;27.48;;;17.85;;
46447;SDS011;32145;50.390;30.778;2023-03-23T09:54:36;27.08;;;18.50;;
46447;SDS011;32145;50.390;30.778;2023-03-23T09:57:37;28.08;;;19.45;;
46447;SDS011;32145;50.390;30.778;2023-03-23T10:00:37;27.70;;;19.65;;
46447;SDS011;32145;50.390;30.778;2023-03-23T10:03:37;27.45;;;18.70;;
46447;SDS011;32145;50.390;30.778;2023-03-23T10:06:34;25.73;;;18.45;;
46447;SDS011;32145;50.390;30.778;2023-03-23T10:09:28;25.98;;;19.20;;
46447;SDS011;32145;50.390;30.778;2023-03-23T10:12:25;27.75;;;18.92;;
46447;SDS011;32145;50.390;30.778;2023-03-23T10:15:26;28.45;;;20.10;;
46447;SDS011;32145;50.390;30.778;2023-03-23T10:18:25;26.90;;;20.58;;
46447;SDS011;32145;50.390;30.778;2023-03-23T10:21:24;27.02;;;19.83;;
46447;SDS011;32145;50.390;30.778;2023-03-23T10:24:23;24.05;;;18.30;;
46447;SDS011;32145;50.390;30.778;2023-03-23T10:27:26;28.92;;;18.70;;
46447;SDS011;32145;50.390;30.778;2023-03-23T10:30:26;29.23;;;19.48;;
46447;SDS011;32145;50.390;30.778;2023-03-23T10:33:25;27.30;;;20.10;;
46447;SDS011;32145;50.390;30.778;2023-03-23T10:36:29;29.65;;;21.15;;
46447;SDS011;32145;50.390;30.778;2023-03-23T10:39:26;25.23;;;18.38;;
46447;SDS011;32145;50.390;30.778;2023-03-23T10:42:27;26.80;;;19.25;;
46447;SDS011;32145;50.390;30.778;2023-03-23T10:45:24;24.05;;;17.63;;
46447;SDS011;32145;50.390;30.778;2023-03-23T10:48:22;24.85;;;17.33;;
46447;SDS011;32145;50.390;30.778;2023-03-23T10:51:20;25.30;;;17.05;;
46447;SDS011;32145;50.390;30.778;2023-03-23T10:54:26;26.27;;;17.40;;
46447;SDS011;32145;50.390;30.778;2023-03-23T10:57:26;25.10;;;17.02;;
46447;SDS011;32145;50.390;30.778;2023-03-23T11:00:24;29.05;;;16.50;;
46447;SDS011;32145;50.390;30.778;2023-03-23T11:03:25;25.17;;;16.63;;
46447;SDS011;32145;50.390;30.778;2023-03-23T11:06:29;22.63;;;15.32;;
46447;SDS011;32145;50.390;30.778;2023-03-23T11:09:36;21.03;;;14.13;;
46447;SDS011;32145;50.390;30.778;2023-03-23T11:12:34;20.98;;;14.57;;
46447;SDS011;32145;50.390;30.778;2023-03-23T11:15:32;18.33;;;12.60;;
46447;SDS011;32145;50.390;30.778;2023-03-23T11:18:34;16.90;;;11.20;;
46447;SDS011;32145;50.390;30.778;2023-03-23T11:21:32;16.70;;;11.02;;
46447;SDS011;32145;50.390;30.778;2023-03-23T11:24:28;15.25;;;11.25;;
46447;SDS011;32145;50.390;30.778;2023-03-23T11:27:26;14.63;;;10.02;;
46447;SDS011;32145;50.390;30.778;2023-03-23T11:30:24;17.27;;;10.57;;
46447;SDS011;32145;50.390;30.778;2023-03-23T11:33:22;16.75;;;12.27;;
46447;SDS011;32145;50.390;30.778;2023-03-23T11:36:19;16.60;;;11.55;;
46447;SDS011;32145;50.390;30.778;2023-03-23T11:39:19;18.25;;;12.75;;
46447;SDS011;32145;50.390;30.778;2023-03-23T11:42:18;17.27;;;11.82;;
46447;SDS011;32145;50.390;30.778;2023-03-23T11:45:18;15.85;;;11.40;;
46447;SDS011;32145;50.390;30.778;2023-03-23T11:48:15;14.93;;;11.70;;
46447;SDS011;32145;50.390;30.778;2023-03-23T11:51:16;15.88;;;10.38;;
46447;SDS011;32145;50.390;30.778;2023-03-23T11:54:15;15.90;;;11.20;;
46447;SDS011;32145;50.390;30.778;2023-03-23T11:57:12;13.85;;;10.80;;
46447;SDS011;32145;50.390;30.778;2023-03-23T12:00:12;16.27;;;11.35;;
46447;SDS011;32145;50.390;30.778;2023-03-23T12:03:31;14.93;;;10.40;;
46447;SDS011;32145;50.390;30.778;2023-03-23T12:06:46;14.48;;;10.30;;
46447;SDS011;32145;50.390;30.778;2023-03-23T12:09:50;13.48;;;9.60;;
46447;SDS011;32145;50.390;30.778;2023-03-23T12:12:56;14.02;;;9.85;;
46447;SDS011;32145;50.390;30.778;2023-03-23T12:16:01;14.57;;;10.48;;
46447;SDS011;32145;50.390;30.778;2023-03-23T12:19:06;13.48;;;9.25;;
46447;SDS011;32145;50.390;30.778;2023-03-23T12:22:08;11.10;;;8.02;;
46447;SDS011;32145;50.390;30.778;2023-03-23T12:25:22;12.27;;;8.27;;
46447;SDS011;32145;50.390;30.778;2023-03-23T12:28:37;13.35;;;9.00;;
46447;SDS011;32145;50.390;30.778;2023-03-23T12:31:45;12.57;;;7.87;;
46447;SDS011;32145;50.390;30.778;2023-03-23T12:34:52;12.40;;;9.18;;
46447;SDS011;32145;50.390;30.778;2023-03-23T12:37:58;27.67;;;22.35;;
46447;SDS011;32145;50.390;30.778;2023-03-23T12:41:11;11.13;;;8.90;;
46447;SDS011;32145;50.390;30.778;2023-03-23T12:44:12;13.00;;;8.75;;
46447;SDS011;32145;50.390;30.778;2023-03-23T12:47:18;12.57;;;8.52;;
46447;SDS011;32145;50.390;30.778;2023-03-23T12:50:26;13.48;;;9.68;;
46447;SDS011;32145;50.390;30.778;2023-03-23T12:53:26;14.88;;;9.85;;
46447;SDS011;32145;50.390;30.778;2023-03-23T12:56:29;12.07;;;9.20;;
46447;SDS011;32145;50.390;30.778;2023-03-23T12:59:30;14.90;;;9.95;;
46447;SDS011;32145;50.390;30.778;2023-03-23T13:02:32;16.80;;;8.85;;
46447;SDS011;32145;50.390;30.778;2023-03-23T13:05:35;15.68;;;8.38;;
46447;SDS011;32145;50.390;30.778;2023-03-23T13:08:35;12.85;;;9.15;;
46447;SDS011;32145;50.390;30.778;2023-03-23T13:11:32;13.57;;;9.43;;
46447;SDS011;32145;50.390;30.778;2023-03-23T13:14:31;14.07;;;8.65;;
46447;SDS011;32145;50.390;30.778;2023-03-23T13:17:39;11.48;;;7.88;;
46447;SDS011;32145;50.390;30.778;2023-03-23T13:20:51;13.57;;;9.23;;
46447;SDS011;32145;50.390;30.778;2023-03-23T13:23:53;14.25;;;9.38;;
46447;SDS011;32145;50.390;30.778;2023-03-23T13:26:52;11.80;;;8.38;;
46447;SDS011;32145;50.390;30.778;2023-03-23T13:29:49;12.85;;;9.57;;
46447;SDS011;32145;50.390;30.778;2023-03-23T13:32:43;11.52;;;8.98;;
46447;SDS011;32145;50.390;30.778;2023-03-23T13:35:38;14.48;;;9.68;;
46447;SDS011;32145;50.390;30.778;2023-03-23T13:38:36;12.93;;;10.10;;
46447;SDS011;32145;50.390;30.778;2023-03-23T13:41:32;11.70;;;8.15;;
46447;SDS011;32145;50.390;30.778;2023-03-23T13:44:38;10.57;;;7.97;;
46447;SDS011;32145;50.390;30.778;2023-03-23T13:50:43;14.30;;;8.70;;
46447;SDS011;32145;50.390;30.778;2023-03-23T13:53:46;13.35;;;9.43;;
46447;SDS011;32145;50.390;30.778;2023-03-23T13:56:47;12.27;;;8.70;;
46447;SDS011;32145;50.390;30.778;2023-03-23T13:59:49;21.23;;;12.80;;
46447;SDS011;32145;50.390;30.778;2023-03-23T14:02:58;15.32;;;10.10;;
46447;SDS011;32145;50.390;30.778;2023-03-23T14:06:01;15.95;;;10.50;;
46447;SDS011;32145;50.390;30.778;2023-03-23T14:09:05;15.68;;;10.50;;
46447;SDS011;32145;50.390;30.778;2023-03-23T14:12:04;26.25;;;17.15;;
46447;SDS011;32145;50.390;30.778;2023-03-23T14:15:11;21.52;;;13.52;;
46447;SDS011;32145;50.390;30.778;2023-03-23T14:18:11;13.57;;;8.82;;
46447;SDS011;32145;50.390;30.778;2023-03-23T14:21:14;38.78;;;22.48;;
46447;SDS011;32145;50.390;30.778;2023-03-23T14:27:08;17.95;;;11.00;;
46447;SDS011;32145;50.390;30.778;2023-03-23T14:30:05;13.85;;;10.10;;
46447;SDS011;32145;50.390;30.778;2023-03-23T14:33:03;15.00;;;9.07;;
46447;SDS011;32145;50.390;30.778;2023-03-23T14:35:59;12.38;;;8.80;;
46447;SDS011;32145;50.390;30.778;2023-03-23T14:39:02;16.20;;;10.77;;
46447;SDS011;32145;50.390;30.778;2023-03-23T14:42:02;13.73;;;9.43;;
46447;SDS011;32145;50.390;30.778;2023-03-23T14:44:58;12.80;;;9.10;;
46447;SDS011;32145;50.390;30.778;2023-03-23T14:47:57;14.13;;;10.07;;
46447;SDS011;32145;50.390;30.778;2023-03-23T14:50:56;13.32;;;9.18;;
46447;SDS011;32145;50.390;30.778;2023-03-23T14:53:54;15.13;;;8.60;;
46447;SDS011;32145;50.390;30.778;2023-03-23T14:56:50;13.27;;;9.40;;
46447;SDS011;32145;50.390;30.778;2023-03-23T14:59:46;13.15;;;9.25;;
46447;SDS011;32145;50.390;30.778;2023-03-23T15:02:43;12.55;;;8.70;;
46447;SDS011;32145;50.390;30.778;2023-03-23T15:05:42;13.75;;;8.35;;
46447;SDS011;32145;50.390;30.778;2023-03-23T15:08:34;14.18;;;9.35;;
46447;SDS011;32145;50.390;30.778;2023-03-23T15:11:31;13.02;;;8.85;;
46447;SDS011;32145;50.390;30.778;2023-03-23T15:14:24;14.75;;;9.00;;
46447;SDS011;32145;50.390;30.778;2023-03-23T15:17:23;13.23;;;8.77;;
46447;SDS011;32145;50.390;30.778;2023-03-23T15:20:21;13.27;;;9.18;;
46447;SDS011;32145;50.390;30.778;2023-03-23T15:23:21;13.60;;;9.25;;
46447;SDS011;32145;50.390;30.778;2023-03-23T15:26:28;13.32;;;8.82;;
46447;SDS011;32145;50.390;30.778;2023-03-23T15:29:26;12.80;;;9.00;;
46447;SDS011;32145;50.390;30.778;2023-03-23T15:32:28;12.25;;;9.00;;
46447;SDS011;32145;50.390;30.778;2023-03-23T15:35:20;11.90;;;8.50;;
46447;SDS011;32145;50.390;30.778;2023-03-23T15:38:18;12.55;;;8.88;;
46447;SDS011;32145;50.390;30.778;2023-03-23T15:54:16;14.15;;;9.05;;
46447;SDS011;32145;50.390;30.778;2023-03-23T15:57:10;14.00;;;9.13;;
46447;SDS011;32145;50.390;30.778;2023-03-23T16:00:04;12.27;;;9.23;;
46447;SDS011;32145;50.390;30.778;2023-03-23T16:02:54;15.75;;;9.95;;
46447;SDS011;32145;50.390;30.778;2023-03-23T16:05:54;15.18;;;9.63;;
46447;SDS011;32145;50.390;30.778;2023-03-23T16:08:51;16.27;;;9.82;;
46447;SDS011;32145;50.390;30.778;2023-03-23T16:11:49;25.58;;;13.60;;
46447;SDS011;32145;50.390;30.778;2023-03-23T16:14:45;41.38;;;17.70;;
46447;SDS011;32145;50.390;30.778;2023-03-23T16:17:42;49.42;;;23.73;;
46447;SDS011;32145;50.390;30.778;2023-03-23T16:20:39;73.03;;;34.80;;
46447;SDS011;32145;50.390;30.778;2023-03-23T16:23:35;80.80;;;37.72;;
46447;SDS011;32145;50.390;30.778;2023-03-23T16:26:31;94.95;;;45.30;;
46447;SDS011;32145;50.390;30.778;2023-03-23T16:29:29;121.03;;;58.20;;
46447;SDS011;32145;50.390;30.778;2023-03-23T16:32:25;105.53;;;50.38;;
46447;SDS011;32145;50.390;30.778;2023-03-23T16:35:21;105.97;;;48.83;;
46447;SDS011;32145;50.390;30.778;2023-03-23T16:38:11;99.27;;;47.17;;
46447;SDS011;32145;50.390;30.778;2023-03-23T16:41:08;84.22;;;41.35;;
46447;SDS011;32145;50.390;30.778;2023-03-23T16:44:04;68.72;;;36.08;;
46447;SDS011;32145;50.390;30.778;2023-03-23T16:47:02;59.80;;;29.45;;
46447;SDS011;32145;50.390;30.778;2023-03-23T16:49:56;48.75;;;26.27;;
46447;SDS011;32145;50.390;30.778;2023-03-23T16:52:51;38.53;;;21.27;;
46447;SDS011;32145;50.390;30.778;2023-03-23T16:55:39;34.72;;;18.77;;
46447;SDS011;32145;50.390;30.778;2023-03-23T16:58:30;27.33;;;16.05;;
46447;SDS011;32145;50.390;30.778;2023-03-23T17:01:24;23.77;;;14.13;;
46447;SDS011;32145;50.390;30.778;2023-03-23T17:04:13;24.00;;;14.25;;
46447;SDS011;32145;50.390;30.778;2023-03-23T17:07:04;37.80;;;22.00;;
46447;SDS011;32145;50.390;30.778;2023-03-23T17:09:58;61.55;;;34.40;;
46447;SDS011;32145;50.390;30.778;2023-03-23T17:12:55;94.38;;;47.13;;
46447;SDS011;32145;50.390;30.778;2023-03-23T17:15:52;108.57;;;53.05;;
46447;SDS011;32145;50.390;30.778;2023-03-23T17:18:47;108.03;;;52.67;;
46447;SDS011;32145;50.390;30.778;2023-03-23T17:21:37;91.97;;;48.15;;
46447;SDS011;32145;50.390;30.778;2023-03-23T17:24:33;83.68;;;43.42;;
46447;SDS011;32145;50.390;30.778;2023-03-23T17:27:23;60.85;;;33.33;;
46447;SDS011;32145;50.390;30.778;2023-03-23T17:30:12;56.22;;;30.02;;
46447;SDS011;32145;50.390;30.778;2023-03-23T17:33:03;53.53;;;27.75;;
46447;SDS011;32145;50.390;30.778;2023-03-23T17:35:59;43.80;;;25.35;;